Time;durP1;ratioP1;P1;durP2;ratioP2;P2;SDS_P1;SDS_P2;PMS_P1;PMS_P2;Temp;Humidity;BMP_temperature;BMP_pressure;BME280_temperature;BME280_humidity;BME280_pressure;Samples;Min_cycle;Max_cycle;Signal;HPM_P1;HPM_P2
2023/02/16 00:01:18;;;;;;;34.15;22.35;;;6.60;99.90;;;;;;5082184;28;20481;-65
2023/02/16 00:03:45;;;;;;;32.13;21.20;;;6.50;50.70;;;;;;5072978;28;20408;-64
2023/02/16 00:06:14;;;;;;;32.45;21.17;;;6.50;14.90;;;;;;5072535;28;22152;-65
2023/02/16 00:08:42;;;;;;;34.88;22.52;;;6.50;2.20;;;;;;5072453;28;20411;-64
2023/02/16 00:14:06;;;;;;;35.78;22.55;;;6.40;37.80;;;;;;5084770;28;20393;-65
2023/02/16 00:16:33;;;;;;;34.92;22.23;;;6.30;99.90;;;;;;5083533;28;20975;-64
2023/02/16 00:19:00;;;;;;;34.40;21.70;;;6.30;99.90;;;;;;5081575;28;20469;-65
2023/02/16 00:21:26;;;;;;;34.38;21.85;;;6.20;99.90;;;;;;5082821;28;20414;-65
2023/02/16 00:23:53;;;;;;;33.10;21.75;;;6.30;99.90;;;;;;5083914;28;21113;-64
2023/02/16 00:26:22;;;;;;;34.13;21.33;;;6.30;99.90;;;;;;5081226;28;20886;-65
2023/02/16 00:28:50;;;;;;;34.40;21.98;;;6.30;99.90;;;;;;5081330;28;20909;-64
2023/02/16 00:31:21;;;;;;;35.55;22.33;;;6.20;81.60;;;;;;5081478;28;20408;-65
2023/02/16 00:33:48;;;;;;;35.13;22.50;;;6.20;99.90;;;;;;5081508;28;20423;-64
2023/02/16 00:36:14;;;;;;;33.22;21.38;;;6.20;99.90;;;;;;5083351;28;20410;-65
2023/02/16 00:38:41;;;;;;;34.42;21.40;;;6.20;99.90;;;;;;5082402;28;20443;-65
2023/02/16 00:41:49;;;;;;;30.65;20.42;;;6.30;61.50;;;;;;5085240;28;20791;-64
2023/02/16 00:44:04;;;;;;;33.92;22.10;;;6.30;18.00;;;;;;5082947;28;20408;-65
2023/02/16 00:46:32;;;;;;;34.78;21.30;;;6.30;7.90;;;;;;5083181;28;20414;-65
2023/02/16 00:48:59;;;;;;;32.28;21.17;;;6.30;13.40;;;;;;5071950;28;20408;-65
2023/02/16 00:51:26;;;;;;;33.58;22.15;;;6.30;9.50;;;;;;5071985;28;20412;-65
2023/02/16 00:53:52;;;;;;;34.22;21.95;;;6.30;1.00;;;;;;5071660;28;20427;-65
2023/02/16 00:56:20;;;;;;;34.65;22.08;;;6.10;1.00;;;;;;5071456;28;20482;-65
2023/02/16 00:58:50;;;;;;;34.30;22.58;;;6.10;99.90;;;;;;5080341;28;20502;-65
2023/02/16 01:01:18;;;;;;;33.83;21.80;;;6.10;37.80;;;;;;5082010;28;20398;-65
2023/02/16 01:03:46;;;;;;;35.33;21.90;;;6.20;12.60;;;;;;5083021;28;20488;-65
2023/02/16 01:11:51;;;;;;;32.33;21.60;;;6.20;4.90;;;;;;5086027;28;20385;-65
2023/02/16 01:14:18;;;;;;;32.97;21.70;;;6.10;1.00;;;;;;5083277;28;20417;-65
2023/02/16 01:16:44;;;;;;;34.05;21.63;;;6.10;1.00;;;;;;5081551;28;20411;-65
2023/02/16 01:19:13;;;;;;;33.25;22.02;;;6.20;1.00;;;;;;5086629;28;20460;-65
2023/02/16 01:21:40;;;;;;;31.33;21.25;;;6.10;1.00;;;;;;5085045;28;20407;-65
2023/02/16 01:24:07;;;;;;;33.42;21.90;;;6.10;1.00;;;;;;5085171;28;20402;-65
2023/02/16 01:26:39;;;;;;;32.20;21.23;;;6.10;1.00;;;;;;5071000;28;20882;-65
2023/02/16 01:29:06;;;;;;;32.25;20.85;;;6.10;1.00;;;;;;5080781;28;20461;-65
2023/02/16 01:31:33;;;;;;;31.98;20.50;;;6.10;1.00;;;;;;5071231;28;20407;-65
2023/02/16 01:33:59;;;;;;;33.55;20.20;;;6.10;1.00;;;;;;5070692;28;20967;-65
2023/02/16 01:36:32;;;;;;;31.43;21.47;;;6.20;99.90;;;;;;5071153;28;20745;-65
2023/02/16 01:38:59;;;;;;;33.75;22.23;;;6.10;99.90;;;;;;5070962;28;20473;-65
2023/02/16 01:41:43;;;;;;;32.75;21.42;;;6.00;1.00;;;;;;5078646;28;20423;-64
2023/02/16 01:44:14;;;;;;;34.22;21.63;;;6.10;99.90;;;;;;5080451;28;20867;-65
2023/02/16 01:46:48;;;;;;;34.55;21.88;;;6.10;99.90;;;;;;5081034;28;20921;-64
2023/02/16 01:49:16;;;;;;;30.65;21.27;;;6.10;99.90;;;;;;5079832;28;20453;-65
2023/02/16 01:51:51;;;;;;;33.15;21.90;;;6.10;99.90;;;;;;5079992;28;20415;-64
2023/02/16 01:54:29;;;;;;;32.47;21.02;;;6.10;99.90;;;;;;5070607;28;20412;-65
2023/02/16 01:57:02;;;;;;;30.80;21.13;;;6.10;99.90;;;;;;5079322;28;20918;-64
2023/02/16 01:59:40;;;;;;;30.70;20.25;;;5.90;99.90;;;;;;5079538;28;20469;-64
2023/02/16 02:02:14;;;;;;;31.93;20.63;;;6.00;99.90;;;;;;5080131;28;20886;-64
2023/02/16 02:07:35;;;;;;;30.10;21.23;;;5.90;1.00;;;;;;5080345;28;20387;-64
2023/02/16 02:10:07;;;;;;;32.17;21.27;;;5.90;1.00;;;;;;5079518;28;20434;-64
2023/02/16 02:12:39;;;;;;;31.95;21.42;;;5.80;1.00;;;;;;5086061;28;20477;-64
2023/02/16 02:15:08;;;;;;;31.85;21.35;;;5.80;1.00;;;;;;5077954;28;20458;-64
2023/02/16 02:17:36;;;;;;;33.20;21.20;;;5.80;1.00;;;;;;5081424;28;20448;-64
2023/02/16 02:20:09;;;;;;;33.33;21.08;;;5.70;1.00;;;;;;5079463;28;20407;-64
2023/02/16 02:26:41;;;;;;;31.20;20.92;;;5.70;1.00;;;;;;5079530;28;20506;-64
2023/02/16 02:29:23;;;;;;;31.67;21.17;;;5.80;1.00;;;;;;5079632;28;20421;-64
2023/02/16 02:31:59;;;;;;;32.22;21.05;;;5.80;1.00;;;;;;5079358;28;20416;-64
2023/02/16 02:34:34;;;;;;;32.25;21.00;;;5.80;99.90;;;;;;5078914;28;20419;-64
2023/02/16 02:37:10;;;;;;;29.08;19.80;;;5.70;99.90;;;;;;5079694;28;20457;-64
2023/02/16 02:39:49;;;;;;;31.60;20.73;;;5.70;99.90;;;;;;5080222;28;20945;-64
2023/02/16 02:42:22;;;;;;;33.03;21.15;;;5.80;99.90;;;;;;5084714;28;20502;-64
2023/02/16 02:44:54;;;;;;;30.15;19.95;;;5.70;99.90;;;;;;5081988;28;20462;-64
2023/02/16 02:47:21;;;;;;;29.10;19.63;;;5.70;99.90;;;;;;5080287;28;20817;-64
2023/02/16 02:49:52;;;;;;;30.30;20.80;;;5.80;99.90;;;;;;5079117;28;20425;-64
2023/02/16 02:52:19;;;;;;;28.70;20.73;;;5.70;99.90;;;;;;5080558;28;20409;-64
2023/02/16 03:00:43;;;;;;;28.33;19.40;;;5.80;1.00;;;;;;5081283;28;20428;-64
2023/02/16 03:03:14;;;;;;;29.50;19.55;;;5.80;1.00;;;;;;5079622;28;20434;-64
2023/02/16 03:05:45;;;;;;;30.25;20.08;;;5.80;99.90;;;;;;5078814;28;20419;-64
2023/02/16 03:08:16;;;;;;;35.25;21.08;;;5.90;1.00;;;;;;5080356;28;20405;-64
2023/02/16 03:13:36;;;;;;;31.87;20.50;;;5.80;99.90;;;;;;5081843;28;20413;-64
2023/02/16 03:16:09;;;;;;;29.92;20.35;;;5.80;99.90;;;;;;5080881;28;20417;-64
2023/02/16 03:29:39;;;;;;;28.83;19.63;;;5.80;1.00;;;;;;5084730;28;20389;-64
2023/02/16 03:32:07;;;;;;;30.97;20.40;;;5.90;1.00;;;;;;5081150;28;20407;-64
2023/02/16 03:34:37;;;;;;;30.08;20.27;;;5.80;1.00;;;;;;5084315;28;20827;-65
2023/02/16 03:37:04;;;;;;;32.67;20.90;;;5.80;1.00;;;;;;5073137;28;20997;-64
2023/02/16 03:40:26;;;;;;;30.38;20.30;;;5.80;99.90;;;;;;5073474;28;20407;-65
2023/02/16 03:42:20;;;;;;;31.38;20.15;;;5.80;99.90;;;;;;5087809;28;20398;-65
2023/02/16 03:44:47;;;;;;;30.52;20.27;;;5.80;99.90;;;;;;5084770;28;21009;-65
2023/02/16 03:47:15;;;;;;;30.42;20.80;;;5.80;99.90;;;;;;5082376;28;20898;-64
2023/02/16 03:49:41;;;;;;;33.35;20.63;;;5.90;99.90;;;;;;5084577;28;20417;-64
2023/02/16 03:52:09;;;;;;;32.03;20.25;;;5.80;99.90;;;;;;5082859;28;20832;-65
2023/02/16 03:54:35;;;;;;;29.35;20.52;;;5.90;70.50;;;;;;5081702;28;20423;-64
2023/02/16 03:57:02;;;;;;;30.08;20.02;;;5.80;99.90;;;;;;5083836;28;20410;-65
2023/02/16 03:59:29;;;;;;;31.85;20.48;;;5.80;99.90;;;;;;5083535;28;20409;-65
2023/02/16 04:01:55;;;;;;;32.28;20.63;;;5.80;99.90;;;;;;5081363;28;20898;-64
2023/02/16 04:04:23;;;;;;;31.48;20.27;;;5.90;1.00;;;;;;5083448;28;20819;-65
2023/02/16 04:06:50;;;;;;;31.08;20.02;;;5.90;1.00;;;;;;5084211;28;20479;-64
2023/02/16 04:09:17;;;;;;;34.85;20.05;;;5.90;99.90;;;;;;5081959;28;20419;-64
2023/02/16 04:14:28;;;;;;;33.72;21.00;;;5.90;99.90;;;;;;5083867;28;20533;-65
2023/02/16 04:16:55;;;;;;;29.73;20.63;;;5.90;99.90;;;;;;5083869;28;20463;-65
2023/02/16 04:19:23;;;;;;;31.70;19.95;;;6.00;99.90;;;;;;5082978;28;20411;-64
2023/02/16 04:21:51;;;;;;;31.63;19.77;;;6.00;99.90;;;;;;5081045;28;20890;-65
2023/02/16 04:24:18;;;;;;;31.10;20.73;;;5.90;99.90;;;;;;5082685;28;20501;-65
2023/02/16 04:26:45;;;;;;;30.75;19.95;;;5.90;99.90;;;;;;5083217;28;20630;-64
2023/02/16 04:29:12;;;;;;;29.80;19.83;;;5.80;99.90;;;;;;5081728;28;20407;-64
2023/02/16 04:31:38;;;;;;;32.25;20.52;;;5.90;99.90;;;;;;5082470;28;20411;-65
2023/02/16 04:34:05;;;;;;;31.98;20.50;;;5.80;99.90;;;;;;5085032;28;20521;-65
2023/02/16 04:36:34;;;;;;;29.60;20.27;;;5.80;99.90;;;;;;5084660;28;20416;-65
2023/02/16 04:39:00;;;;;;;31.80;20.58;;;5.80;99.90;;;;;;5081683;28;20957;-65
2023/02/16 04:41:27;;;;;;;30.60;20.20;;;5.80;1.00;;;;;;5086855;28;20410;-64
2023/02/16 04:43:54;;;;;;;31.67;20.88;;;5.80;1.00;;;;;;5082632;28;20410;-65
2023/02/16 04:46:20;;;;;;;31.35;20.33;;;5.80;99.90;;;;;;5080661;28;20412;-65
2023/02/16 04:48:47;;;;;;;31.98;20.90;;;5.70;1.00;;;;;;5081980;28;20888;-65
2023/02/16 04:51:14;;;;;;;31.80;21.10;;;5.70;1.00;;;;;;5083176;28;20406;-65
2023/02/16 04:53:42;;;;;;;34.28;21.95;;;5.70;1.00;;;;;;5080920;28;20427;-64
2023/02/16 04:56:09;;;;;;;31.08;20.80;;;5.70;1.00;;;;;;5080858;28;20473;-65
2023/02/16 04:58:36;;;;;;;33.22;21.23;;;5.70;1.00;;;;;;5083068;28;20406;-65
2023/02/16 05:01:02;;;;;;;34.75;21.42;;;5.60;1.00;;;;;;5081879;28;20472;-65
2023/02/16 05:03:29;;;;;;;32.22;21.67;;;5.70;1.00;;;;;;5080403;28;20408;-65
2023/02/16 05:05:56;;;;;;;33.85;20.65;;;5.60;76.80;;;;;;5082294;28;20789;-65
2023/02/16 05:08:23;;;;;;;32.13;20.73;;;5.70;99.90;;;;;;5082402;28;20414;-65
2023/02/16 05:16:15;;;;;;;32.22;21.02;;;5.60;99.90;;;;;;5082372;28;20527;-65
2023/02/16 05:18:42;;;;;;;34.28;21.92;;;5.60;99.90;;;;;;5081631;28;20423;-65
2023/02/16 05:23:53;;;;;;;34.10;20.75;;;5.60;99.90;;;;;;5080183;28;20395;-65
2023/02/16 05:26:21;;;;;;;32.30;21.75;;;5.60;99.90;;;;;;5082217;28;20456;-65
2023/02/16 05:28:47;;;;;;;32.15;21.80;;;5.50;99.90;;;;;;5082166;28;20436;-65
2023/02/16 05:31:15;;;;;;;31.95;21.52;;;5.50;1.00;;;;;;5080146;28;20415;-65
2023/02/16 05:33:41;;;;;;;34.40;21.08;;;5.50;1.00;;;;;;5080503;28;20418;-65
2023/02/16 05:36:08;;;;;;;33.83;22.83;;;5.40;67.00;;;;;;5082369;28;20418;-65
2023/02/16 05:38:35;;;;;;;33.38;22.17;;;5.30;99.90;;;;;;5080468;28;20845;-65
2023/02/16 05:41:02;;;;;;;34.40;22.75;;;5.20;1.00;;;;;;5084625;28;20417;-65
2023/02/16 05:43:30;;;;;;;31.90;21.30;;;5.20;1.00;;;;;;5082321;28;20463;-65
2023/02/16 05:45:57;;;;;;;33.58;22.20;;;5.20;1.00;;;;;;5080839;28;20409;-65
2023/02/16 05:48:24;;;;;;;33.65;22.40;;;5.20;99.90;;;;;;5079410;28;20443;-65
2023/02/16 05:50:54;;;;;;;35.67;22.48;;;5.20;99.90;;;;;;5081180;28;20475;-64
2023/02/16 05:53:21;;;;;;;34.33;21.63;;;5.20;99.90;;;;;;5081886;28;20457;-64
2023/02/16 05:55:47;;;;;;;32.20;21.95;;;5.30;99.90;;;;;;5080294;28;20408;-64
2023/02/16 05:58:14;;;;;;;35.20;22.10;;;5.30;99.90;;;;;;5079606;28;20411;-64
2023/02/16 06:00:42;;;;;;;33.72;21.95;;;5.30;99.90;;;;;;5082117;28;20402;-64
2023/02/16 06:03:09;;;;;;;35.67;22.52;;;5.30;99.90;;;;;;5080980;28;20408;-64
2023/02/16 06:05:36;;;;;;;34.00;22.33;;;5.20;99.90;;;;;;5079499;28;20411;-67
2023/02/16 06:08:03;;;;;;;33.25;21.92;;;5.20;99.90;;;;;;5081036;28;20453;-66
2023/02/16 06:10:29;;;;;;;34.30;22.58;;;5.10;99.90;;;;;;5082176;28;20406;-66
2023/02/16 06:12:56;;;;;;;33.30;22.20;;;5.10;53.90;;;;;;5085707;28;20414;-66
2023/02/16 06:15:23;;;;;;;36.15;22.27;;;5.10;99.90;;;;;;5080074;28;20426;-66
2023/02/16 06:17:51;;;;;;;36.22;21.85;;;5.20;99.90;;;;;;5081451;28;20807;-66
2023/02/16 06:20:18;;;;;;;32.80;22.42;;;5.20;99.90;;;;;;5080468;28;20415;-66
2023/02/16 06:22:44;;;;;;;33.75;22.15;;;5.20;99.90;;;;;;5078803;28;20827;-65
2023/02/16 06:25:11;;;;;;;33.90;21.88;;;5.20;99.90;;;;;;5069551;28;20824;-65
2023/02/16 06:27:38;;;;;;;33.15;22.38;;;5.20;99.90;;;;;;5070094;28;20419;-65
2023/02/16 06:30:07;;;;;;;32.33;22.15;;;5.10;99.90;;;;;;5070516;28;20537;-65
2023/02/16 06:32:34;;;;;;;35.00;21.33;;;5.20;99.90;;;;;;5070417;28;20418;-65
2023/02/16 06:35:02;;;;;;;32.88;21.45;;;5.20;99.90;;;;;;5069941;28;21028;-65
2023/02/16 06:37:29;;;;;;;32.65;21.02;;;5.20;99.90;;;;;;5079397;28;20420;-66
2023/02/16 06:39:56;;;;;;;33.90;21.30;;;5.30;99.90;;;;;;5078977;28;20455;-65
2023/02/16 06:42:23;;;;;;;32.78;21.33;;;5.40;99.90;;;;;;5087589;28;20410;-65
2023/02/16 06:44:49;;;;;;;34.67;21.95;;;5.40;99.90;;;;;;5082127;28;20906;-65
2023/02/16 06:47:16;;;;;;;31.15;20.70;;;5.50;72.90;;;;;;5078545;28;20416;-65
2023/02/16 06:49:43;;;;;;;37.70;21.17;;;5.50;99.90;;;;;;5080975;28;20414;-65
2023/02/16 06:52:11;;;;;;;32.60;21.60;;;5.50;91.40;;;;;;5081050;28;20476;-65
2023/02/16 06:54:37;;;;;;;31.92;20.27;;;5.50;96.70;;;;;;5078678;28;20431;-65
2023/02/16 06:57:04;;;;;;;30.70;20.45;;;5.70;24.50;;;;;;5079928;28;20417;-65
2023/02/16 06:59:31;;;;;;;31.67;20.92;;;5.70;1.00;;;;;;5085216;28;20414;-65
2023/02/16 07:01:57;;;;;;;30.60;20.55;;;5.70;1.00;;;;;;5083459;28;20415;-65
2023/02/16 07:04:24;;;;;;;32.40;20.52;;;5.80;1.00;;;;;;5082838;28;20407;-66
2023/02/16 07:06:51;;;;;;;30.55;21.00;;;5.80;1.00;;;;;;5085122;28;20405;-65
2023/02/16 07:09:18;;;;;;;33.40;21.08;;;6.00;1.00;;;;;;5084995;28;20465;-65
2023/02/16 07:11:45;;;;;;;35.75;24.58;;;6.00;99.90;;;;;;5089999;28;20478;-65
2023/02/16 07:14:12;;;;;;;36.97;29.52;;;6.00;99.90;;;;;;5085812;28;20961;-65
2023/02/16 07:16:39;;;;;;;34.88;22.77;;;6.10;99.90;;;;;;5084526;28;20942;-65
2023/02/16 07:19:05;;;;;;;32.50;21.08;;;6.20;99.90;;;;;;5082733;28;20419;-66
2023/02/16 07:21:32;;;;;;;38.20;22.83;;;6.30;1.00;;;;;;5083369;28;20417;-65
2023/02/16 07:23:59;;;;;;;34.20;21.33;;;6.70;1.00;;;;;;5084496;28;20414;-65
2023/02/16 07:26:27;;;;;;;37.92;21.48;;;6.90;51.40;;;;;;5082878;28;20415;-65
2023/02/16 07:28:53;;;;;;;30.75;19.63;;;7.00;1.00;;;;;;5082565;28;20426;-65
2023/02/16 07:31:20;;;;;;;32.80;21.95;;;7.40;99.90;;;;;;5073542;28;20408;-65
2023/02/16 07:33:47;;;;;;;32.30;21.10;;;7.40;1.00;;;;;;5073406;28;20713;-65
2023/02/16 07:36:14;;;;;;;34.53;20.85;;;7.40;1.00;;;;;;5073192;28;20407;-65
2023/02/16 07:38:41;;;;;;;33.65;21.33;;;7.40;72.90;;;;;;5072970;28;20408;-65
2023/02/16 07:41:08;;;;;;;30.57;19.13;;;7.30;99.90;;;;;;5081908;28;20984;-65
2023/02/16 07:43:36;;;;;;;29.35;19.70;;;7.10;99.90;;;;;;5083670;28;20411;-66
2023/02/16 07:46:04;;;;;;;29.95;20.42;;;6.80;99.90;;;;;;5082793;28;20798;-65
2023/02/16 07:48:31;;;;;;;31.35;19.95;;;6.70;1.00;;;;;;5085407;28;20409;-65
2023/02/16 07:50:58;;;;;;;32.88;20.63;;;6.70;1.00;;;;;;5090189;28;20545;-66
2023/02/16 07:53:25;;;;;;;31.42;20.67;;;6.70;1.00;;;;;;5088709;28;20506;-66
2023/02/16 07:55:51;;;;;;;32.25;20.52;;;6.60;90.90;;;;;;5083713;28;20487;-66
2023/02/16 07:58:26;;;;;;;32.10;21.00;;;6.60;99.90;;;;;;5083775;28;20406;-66
2023/02/16 08:00:56;;;;;;;29.90;21.23;;;6.60;99.90;;;;;;5072229;28;20546;-66
2023/02/16 08:03:22;;;;;;;30.27;21.23;;;6.60;99.90;;;;;;5087709;28;20449;-66
2023/02/16 08:05:49;;;;;;;29.02;20.35;;;6.60;99.90;;;;;;5088518;28;20409;-65
2023/02/16 08:08:16;;;;;;;29.98;21.02;;;6.60;99.90;;;;;;5081601;28;20897;-65
2023/02/16 08:10:43;;;;;;;28.85;20.67;;;6.70;99.90;;;;;;5084334;28;20908;-66
2023/02/16 08:13:09;;;;;;;28.13;20.42;;;6.80;99.90;;;;;;5085516;28;20414;-65
2023/02/16 08:15:36;;;;;;;31.42;20.42;;;6.80;99.90;;;;;;5081355;28;20427;-65
2023/02/16 08:18:04;;;;;;;30.77;20.03;;;6.90;99.90;;;;;;5083687;28;20497;-66
2023/02/16 08:20:31;;;;;;;29.27;20.38;;;6.90;1.00;;;;;;5083345;28;20421;-65
2023/02/16 08:22:58;;;;;;;27.35;20.02;;;7.00;1.00;;;;;;5081148;28;20425;-65
2023/02/16 08:25:24;;;;;;;28.30;20.17;;;7.10;99.90;;;;;;5085242;28;20446;-65
2023/02/16 08:27:51;;;;;;;30.77;20.55;;;7.20;99.90;;;;;;5084208;28;20486;-65
2023/02/16 08:30:19;;;;;;;28.75;20.48;;;7.20;99.90;;;;;;5081478;28;20825;-66
2023/02/16 08:32:49;;;;;;;31.92;20.70;;;7.20;99.90;;;;;;5081467;28;20503;-66
2023/02/16 08:35:17;;;;;;;29.37;20.67;;;7.30;99.90;;;;;;5081287;28;20511;-65
2023/02/16 08:37:44;;;;;;;30.27;20.88;;;7.40;99.90;;;;;;5081467;28;20425;-64
2023/02/16 08:40:11;;;;;;;28.90;20.27;;;7.40;99.90;;;;;;5084390;28;21129;-64
2023/02/16 08:42:38;;;;;;;29.40;20.20;;;7.50;99.90;;;;;;5086929;28;20410;-65
2023/02/16 08:45:06;;;;;;;27.40;20.27;;;7.40;99.90;;;;;;5084511;28;20402;-64
2023/02/16 08:47:32;;;;;;;26.70;19.42;;;7.50;99.90;;;;;;5081307;28;20415;-65
2023/02/16 08:49:59;;;;;;;26.00;19.00;;;7.50;99.90;;;;;;5081548;28;20426;-64
2023/02/16 08:52:27;;;;;;;29.73;21.02;;;7.40;94.10;;;;;;5083502;28;20410;-65
2023/02/16 08:54:55;;;;;;;29.75;20.20;;;7.50;99.90;;;;;;5082042;28;20430;-64
2023/02/16 08:57:21;;;;;;;28.40;20.38;;;7.50;99.90;;;;;;5080167;28;20419;-64
2023/02/16 09:00:32;;;;;;;28.45;20.85;;;7.60;99.90;;;;;;5082431;28;20409;-64
2023/02/16 09:02:35;;;;;;;32.33;19.75;;;7.60;99.90;;;;;;5081586;28;20400;-64
2023/02/16 09:05:02;;;;;;;27.23;19.88;;;7.60;99.90;;;;;;5080655;28;20411;-65
2023/02/16 09:07:33;;;;;;;28.25;18.85;;;7.80;1.00;;;;;;5081782;28;20875;-65
2023/02/16 09:10:00;;;;;;;27.70;19.48;;;7.90;1.00;;;;;;5078620;28;20502;-65
2023/02/16 09:12:28;;;;;;;27.73;18.85;;;8.10;1.00;;;;;;5088008;28;20868;-65
2023/02/16 09:14:56;;;;;;;26.17;18.63;;;8.30;99.90;;;;;;5078870;28;20423;-65
2023/02/16 09:17:22;;;;;;;25.67;17.85;;;8.50;90.70;;;;;;5079698;28;20417;-64
2023/02/16 09:19:49;;;;;;;27.70;18.10;;;8.50;1.00;;;;;;5081114;28;20419;-64
2023/02/16 09:22:16;;;;;;;24.67;17.52;;;8.70;99.90;;;;;;5082115;28;20496;-64
2023/02/16 09:24:44;;;;;;;26.98;17.67;;;8.70;99.90;;;;;;5080446;28;20882;-65
2023/02/16 09:27:11;;;;;;;26.25;17.70;;;8.60;99.90;;;;;;5079845;28;20419;-65
2023/02/16 09:29:39;;;;;;;23.13;17.15;;;8.60;99.90;;;;;;5080318;28;20415;-65
2023/02/16 09:32:08;;;;;;;22.70;16.80;;;8.80;99.90;;;;;;5081355;28;20446;-65
2023/02/16 09:34:37;;;;;;;23.20;16.35;;;9.00;99.90;;;;;;5082348;28;20970;-65
2023/02/16 09:37:03;;;;;;;24.20;16.77;;;9.10;1.00;;;;;;5081476;28;20409;-64
2023/02/16 09:39:30;;;;;;;25.02;17.73;;;9.10;1.00;;;;;;5079486;28;20419;-65
2023/02/16 09:42:07;;;;;;;24.95;16.85;;;9.10;1.00;;;;;;5087822;28;20509;-64
2023/02/16 09:44:45;;;;;;;24.83;17.00;;;9.10;1.00;;;;;;5081097;28;20419;-65
2023/02/16 09:47:28;;;;;;;24.15;16.75;;;9.10;1.00;;;;;;5079408;28;20411;-65
2023/02/16 09:49:57;;;;;;;22.67;16.65;;;9.20;1.00;;;;;;5079424;28;20419;-65
2023/02/16 09:52:30;;;;;;;24.33;16.08;;;9.20;1.00;;;;;;5081041;28;20417;-64
2023/02/16 09:54:59;;;;;;;23.65;15.90;;;9.40;1.00;;;;;;5082379;28;20509;-65
2023/02/16 09:57:40;;;;;;;23.27;16.40;;;9.50;99.90;;;;;;5080570;28;20972;-65
2023/02/16 10:00:22;;;;;;;23.03;15.53;;;9.40;99.90;;;;;;5080993;28;20400;-65
2023/02/16 10:02:55;;;;;;;21.10;15.85;;;9.40;99.90;;;;;;5080832;28;20422;-65
2023/02/16 10:05:29;;;;;;;23.02;16.38;;;9.40;99.90;;;;;;5079494;28;20408;-65
2023/02/16 10:08:02;;;;;;;22.70;16.10;;;9.40;99.90;;;;;;5079665;28;20451;-65
2023/02/16 10:10:42;;;;;;;21.17;15.65;;;9.50;99.90;;;;;;5069719;28;20468;-65
2023/02/16 10:13:20;;;;;;;23.05;15.93;;;9.50;99.90;;;;;;5079461;28;20466;-65
2023/02/16 10:15:49;;;;;;;22.27;16.15;;;9.30;99.90;;;;;;5085351;28;20423;-64
2023/02/16 10:18:23;;;;;;;24.20;16.40;;;9.20;99.90;;;;;;5080177;28;20417;-65
2023/02/16 10:20:55;;;;;;;23.48;16.58;;;9.20;99.90;;;;;;5070491;28;20888;-65
2023/02/16 10:23:33;;;;;;;22.87;16.03;;;9.30;99.90;;;;;;5070444;28;20834;-65
2023/02/16 10:26:06;;;;;;;23.63;16.77;;;9.30;99.90;;;;;;5082122;28;20417;-65
2023/02/16 10:28:46;;;;;;;23.05;15.95;;;9.10;99.90;;;;;;5084749;28;20409;-65
2023/02/16 10:31:19;;;;;;;23.60;17.00;;;9.00;99.90;;;;;;5085921;28;20413;-65
2023/02/16 10:34:01;;;;;;;24.30;17.30;;;9.00;99.90;;;;;;5085269;28;20415;-65
2023/02/16 10:36:38;;;;;;;26.45;18.17;;;9.10;99.90;;;;;;5085059;28;20503;-65
2023/02/16 10:39:13;;;;;;;25.52;18.02;;;9.00;99.90;;;;;;5084315;28;20411;-68
2023/02/16 10:41:44;;;;;;;27.05;18.75;;;8.90;1.00;;;;;;5084488;28;20751;-64
2023/02/16 10:44:19;;;;;;;27.95;18.45;;;9.00;1.00;;;;;;5086929;28;20421;-65
2023/02/16 10:46:51;;;;;;;26.10;19.35;;;8.90;1.00;;;;;;5083900;28;20399;-64
2023/02/16 10:49:18;;;;;;;26.85;18.42;;;9.00;1.00;;;;;;5083165;28;20410;-65
2023/02/16 10:51:49;;;;;;;27.23;17.83;;;9.10;1.00;;;;;;5084517;28;20512;-65
2023/02/16 10:54:22;;;;;;;25.75;19.45;;;9.10;1.00;;;;;;5085312;28;20892;-65
2023/02/16 10:56:52;;;;;;;27.00;19.17;;;9.00;1.00;;;;;;5084169;28;20916;-65
2023/02/16 10:59:22;;;;;;;25.77;19.05;;;9.10;1.00;;;;;;5082939;28;20429;-65
2023/02/16 11:01:52;;;;;;;27.75;18.92;;;9.10;1.00;;;;;;5084140;28;20411;-65
2023/02/16 11:04:35;;;;;;;26.17;18.97;;;9.30;6.70;;;;;;5083431;28;20967;-65
2023/02/16 11:07:04;;;;;;;26.92;19.25;;;9.40;1.00;;;;;;5089268;28;20414;-65
2023/02/16 11:09:32;;;;;;;26.35;18.42;;;9.50;36.70;;;;;;5091147;28;20418;-65
2023/02/16 11:11:59;;;;;;;26.13;18.60;;;9.50;21.90;;;;;;5090056;28;20497;-64
2023/02/16 11:14:29;;;;;;;24.95;19.50;;;9.50;99.90;;;;;;5086523;28;20421;-65
2023/02/16 11:17:06;;;;;;;28.13;19.60;;;9.60;99.90;;;;;;5084744;28;20838;-65
2023/02/16 11:19:34;;;;;;;29.33;20.10;;;9.70;99.90;;;;;;5085002;28;20500;-65
2023/02/16 11:22:01;;;;;;;30.00;21.02;;;9.80;99.90;;;;;;5082736;28;20817;-65
2023/02/16 11:24:30;;;;;;;28.70;20.60;;;9.80;99.90;;;;;;5083303;28;20461;-64
2023/02/16 11:27:06;;;;;;;28.65;20.63;;;9.70;99.90;;;;;;5084403;28;20460;-65
2023/02/16 11:29:34;;;;;;;27.77;21.23;;;9.90;99.90;;;;;;5084637;28;20454;-65
2023/02/16 11:32:06;;;;;;;27.63;20.33;;;10.10;99.90;;;;;;5082598;28;20419;-65
2023/02/16 11:34:36;;;;;;;27.08;20.38;;;10.20;99.90;;;;;;5081999;28;20948;-65
2023/02/16 11:37:06;;;;;;;29.35;21.35;;;10.10;99.90;;;;;;5083451;28;20513;-65
2023/02/16 11:39:37;;;;;;;29.35;20.50;;;10.00;99.90;;;;;;5084631;28;20406;-65
2023/02/16 11:42:07;;;;;;;27.10;19.73;;;10.10;99.90;;;;;;5089267;28;20838;-65
2023/02/16 11:44:39;;;;;;;26.27;20.42;;;10.10;99.90;;;;;;5083567;28;20420;-65
2023/02/16 11:47:08;;;;;;;27.58;20.60;;;10.10;99.90;;;;;;5082718;28;20411;-65
2023/02/16 11:49:38;;;;;;;33.75;22.92;;;10.00;99.90;;;;;;5084358;28;20892;-65
2023/02/16 11:52:28;;;;;;;32.70;22.88;;;10.10;1.00;;;;;;5083908;28;20435;-65
2023/02/16 11:55:01;;;;;;;32.00;21.88;;;9.90;1.00;;;;;;5083878;28;20410;-66
2023/02/16 11:57:30;;;;;;;28.35;21.25;;;10.10;1.00;;;;;;5082551;28;20412;-65
2023/02/16 12:00:00;;;;;;;30.55;21.48;;;9.90;1.00;;;;;;5081783;28;20511;-65
2023/02/16 12:02:49;;;;;;;28.73;20.98;;;9.80;99.90;;;;;;5082759;28;20413;-65
2023/02/16 12:05:25;;;;;;;31.10;22.13;;;9.90;1.00;;;;;;5072680;28;20411;-65
2023/02/16 12:08:10;;;;;;;30.35;22.23;;;9.60;1.00;;;;;;5082356;28;20430;-65
2023/02/16 12:10:42;;;;;;;28.25;21.10;;;9.70;1.00;;;;;;5084955;28;20455;-65
2023/02/16 12:13:18;;;;;;;30.73;21.88;;;9.70;99.90;;;;;;5087131;28;20780;-65
2023/02/16 12:15:54;;;;;;;30.42;22.30;;;9.70;1.00;;;;;;5083480;28;20418;-65
2023/02/16 12:18:31;;;;;;;30.42;22.50;;;9.90;99.90;;;;;;5082420;28;20466;-65
2023/02/16 12:21:08;;;;;;;31.40;21.98;;;9.90;99.90;;;;;;5078767;28;20408;-65
2023/02/16 12:23:41;;;;;;;31.40;22.27;;;9.90;1.00;;;;;;5081416;28;20507;-65
2023/02/16 12:26:33;;;;;;;30.00;22.45;;;9.80;1.00;;;;;;5081189;28;20882;-65
2023/02/16 12:29:24;;;;;;;29.52;21.90;;;9.80;99.90;;;;;;5083729;28;20410;-65
2023/02/16 12:32:07;;;;;;;29.65;22.00;;;9.80;99.90;;;;;;5081563;28;20473;-65
2023/02/16 12:34:47;;;;;;;28.52;22.15;;;10.00;1.00;;;;;;5071960;28;20814;-65
2023/02/16 12:37:24;;;;;;;31.63;23.08;;;9.70;99.90;;;;;;5080886;28;20431;-65
2023/02/16 12:39:58;;;;;;;32.75;23.95;;;9.70;1.00;;;;;;5080981;28;20412;-65
2023/02/16 12:42:47;;;;;;;30.30;22.90;;;9.70;99.90;;;;;;5086133;28;20915;-65
2023/02/16 12:45:17;;;;;;;29.33;22.17;;;9.60;99.90;;;;;;5083541;28;20406;-64
2023/02/16 12:47:50;;;;;;;31.23;22.15;;;9.80;99.90;;;;;;5081414;28;20411;-64
2023/02/16 12:50:21;;;;;;;31.08;22.33;;;10.00;99.90;;;;;;5081154;28;20491;-65
2023/02/16 12:52:54;;;;;;;28.90;21.20;;;10.10;99.90;;;;;;5081329;28;20932;-65
2023/02/16 12:55:26;;;;;;;30.58;21.77;;;10.30;99.90;;;;;;5079596;28;20815;-65
2023/02/16 12:58:00;;;;;;;30.90;22.77;;;10.30;16.80;;;;;;5080848;28;20411;-65
2023/02/16 13:00:37;;;;;;;29.33;21.50;;;10.30;92.40;;;;;;5073655;28;20415;-65
2023/02/16 13:03:16;;;;;;;28.58;21.33;;;10.50;99.90;;;;;;5081834;28;20492;-65
2023/02/16 13:05:48;;;;;;;28.20;21.38;;;10.70;1.00;;;;;;5086784;28;20412;-65
2023/02/16 13:08:22;;;;;;;28.15;19.98;;;10.60;1.00;;;;;;5082749;28;20426;-65
2023/02/16 13:10:55;;;;;;;28.23;20.88;;;10.70;99.90;;;;;;5084203;28;20781;-65
2023/02/16 13:13:25;;;;;;;31.45;21.42;;;10.80;1.00;;;;;;5083867;28;20416;-65
2023/02/16 13:16:06;;;;;;;31.52;21.20;;;10.90;1.00;;;;;;5083609;28;20796;-65
2023/02/16 13:18:38;;;;;;;28.80;20.67;;;10.90;99.90;;;;;;5084031;28;20969;-65
2023/02/16 13:21:10;;;;;;;30.30;21.15;;;10.90;99.90;;;;;;5086579;28;20432;-65
2023/02/16 13:23:46;;;;;;;30.50;23.23;;;10.70;99.90;;;;;;5085744;28;20427;-65
2023/02/16 13:26:27;;;;;;;30.85;22.25;;;10.60;1.00;;;;;;5070910;28;20407;-65
2023/02/16 13:29:27;;;;;;;30.65;22.33;;;10.80;1.00;;;;;;5079875;28;20960;-65
2023/02/16 13:32:06;;;;;;;31.60;22.23;;;10.80;99.90;;;;;;5082665;28;20405;-65
2023/02/16 13:35:08;;;;;;;31.20;22.33;;;11.00;1.00;;;;;;5082079;28;20454;-66
2023/02/16 13:37:51;;;;;;;32.45;23.17;;;10.70;70.60;;;;;;5067419;28;20427;-65
2023/02/16 13:41:09;;;;;;;30.57;22.20;;;10.90;99.90;;;;;;5081357;28;20459;-66